Morell, Canada
Current Conditions -  °F | °C
As of 10:00 AM on Wednesday 22 Oct 2014 (Local Time) from CYYG Reporting Station
Broken Clouds Broken Clouds  
Wind Chill: 44°   Ceiling: 13000
Heat Index: 48°   Visibility: 15mi
Dew Point: 41°   Wind: 10mph
Humidity: 76%   Direction: 70°ENE
Pressure: 30.4"   Gusts: NA
Location:  46.42°N, 62.7°W
Report Text: CYYG 221300Z 07009KT 15SM FEW025 BKN130 BKN250 09/05 A3040 RMK SC1AC5CI1 SLP295
Loading
Personal Weather Stations






























Interactive Weather Map
Tropical Storm Tracking
New forecast layout! Learn more

10-Day Weather Forecast

Advertisements
Track Severe Weather on mobile